Legal, Canada
Current Conditions -  °F | °C
As of 10:00 PM on Monday 20 Oct 2014 (Local Time) from CYED Reporting Station
Clear Clear  
Wind Chill: 50°   Ceiling: Unl
Heat Index: 50°   Visibility: 9mi
Dew Point: 34°   Wind: 0mph
Humidity: 54%   Direction: NA
Pressure: 29.47"   Gusts: NA
Location:  53.95°N, 113.63°W
Report Text: CYED 210400Z AUTO 00000KT 9SM CLR 10/01 A2947 RMK SLP990
Loading
Personal Weather Stations






























Interactive Weather Map
Tropical Storm Tracking
New forecast layout! Learn more

10-Day Weather Forecast

Advertisements
Track Severe Weather on mobile